M I D A S
Marine Information and Data Acquisition System
Tripno 1510 of the Zeeleeuw from 2008-06-25 06:06:34 to 2008-06-25 12:09:04
Back to CruiseResearch ActivitiesStationsMapUnderway DataData graphs

EquipmentUnitsComment
TimeDGPSUTC
LatitudeDGPSDM.mWGS84
LongitudeDGPSDM.mWGS84
HeadingGyrodeg 
SOGDGPSknotsSpeed over ground
COGDGPSdegCourse over ground
DepthEcho soundermeters200 kHz
Missing or incorrect values are displayed as -999
Navigation data collected by the RV Zeeleeuw from 2008-06-25 06:06:44 to 2008-06-25 12:12:41
Time Latitude Longitude Heading SOG COG Depth
2008-06-25 06:07:49 51°13.648 2°55.973 117.5 4.5 298 -999
2008-06-25 06:08:49 51°13.688 2°55.859 124.6 5.3 304 -999
2008-06-25 06:09:49 51°13.742 2°55.744 129.9 5.5 310 -999
2008-06-25 06:10:49 51°13.811 2°55.651 154.9 5.4 333 -999
2008-06-25 06:11:49 51°13.893 2°55.631 194.4 4.9 11 -999
2008-06-25 06:12:49 51°13.939 2°55.662 236.7 1.3 265 -999
2008-06-25 06:13:49 51°13.98 2°55.567 317.8 6.9 320 12.8
2008-06-25 06:14:49 51°14.104 2°55.439 331.3 10 332 12.7
2008-06-25 06:15:49 51°14.241 2°55.276 318.1 10.6 316 12.6
2008-06-25 06:16:49 51°14.367 2°55.049 311.4 11.9 310 12.7
2008-06-25 06:17:49 51°14.491 2°54.793 301.8 12.3 300 12.6
2008-06-25 06:18:49 51°14.571 2°54.505 288 11.8 291 12.3
2008-06-25 06:19:49 51°14.653 2°54.218 294.8 12 296 12.6
2008-06-25 06:20:49 51°14.716 2°53.923 277.9 11.6 275 12.7
2008-06-25 06:21:49 51°14.712 2°53.615 268 11.8 269 12.1
2008-06-25 06:22:49 51°14.723 2°53.303 273.9 11.8 275 11
2008-06-25 06:23:49 51°14.748 2°52.992 277.6 12 281 11.1
2008-06-25 06:24:49 51°14.774 2°52.679 275.2 11.8 278 11.3
2008-06-25 06:25:49 51°14.789 2°52.366 271.7 11.9 273 11.5
2008-06-25 06:26:49 51°14.802 2°52.05 272.5 12 273 11.7
2008-06-25 06:27:49 51°14.819 2°51.732 272.9 12 276 12.1
2008-06-25 06:28:49 51°14.849 2°51.417 276.6 12 279 12.7
2008-06-25 06:29:49 51°14.878 2°51.102 276.1 12 278 13.1
2008-06-25 06:30:49 51°14.904 2°50.787 274.5 12 278 13.5
2008-06-25 06:31:49 51°14.93 2°50.474 274.9 11.8 278 13.8
2008-06-25 06:32:49 51°14.947 2°50.16 271.5 11.9 276 14.1
2008-06-25 06:33:49 51°14.966 2°49.844 275.3 12 277 14.3
2008-06-25 06:34:49 51°14.991 2°49.529 272.1 11.8 274 14.3
2008-06-25 06:35:49 51°15.007 2°49.217 272.6 11.8 276 14.2
2008-06-25 06:36:49 51°15.025 2°48.902 273.5 11.9 275 14.1
2008-06-25 06:37:49 51°15.043 2°48.588 274.1 11.9 274 14.2
2008-06-25 06:38:49 51°15.071 2°48.272 277.8 12.1 278 14.5
2008-06-25 06:39:49 51°15.085 2°47.955 271.3 11.9 273 14.2
2008-06-25 06:40:49 51°15.111 2°47.641 273.8 11.9 276 12
2008-06-25 06:41:49 51°15.139 2°47.329 274.7 12 278 10.8
2008-06-25 06:42:49 51°15.16 2°47.014 270.3 11.9 274 11.4
2008-06-25 06:43:49 51°15.173 2°46.696 271.1 12.1 274 12.4
2008-06-25 06:44:49 51°15.188 2°46.378 272.4 12.1 275 13.7
2008-06-25 06:45:49 51°15.211 2°46.059 275.4 12.1 278 15.3
2008-06-25 06:46:49 51°15.237 2°45.743 274.5 12 276 16.8
2008-06-25 06:47:49 51°15.259 2°45.427 275.1 12 276 17.5
2008-06-25 06:48:49 51°15.283 2°45.112 272.8 11.9 274 18.7
2008-06-25 06:49:49 51°15.3 2°44.797 272.9 12 277 19.4
2008-06-25 06:50:49 51°15.326 2°44.482 273.5 11.9 275 18.1
2008-06-25 06:51:49 51°15.348 2°44.169 272.8 12 278 15.7
2008-06-25 06:52:49 51°15.375 2°43.857 272.1 11.8 276 14.2
2008-06-25 06:53:49 51°15.396 2°43.546 272.3 11.8 277 14.4
2008-06-25 06:54:49 51°15.42 2°43.233 276.1 11.9 278 14.7
2008-06-25 06:55:49 51°15.442 2°42.916 272.1 12.1 275 12.9
2008-06-25 06:56:49 51°15.463 2°42.598 274.1 11.9 276 11.3
2008-06-25 06:57:49 51°15.483 2°42.282 272.9 12.1 278 12.1
2008-06-25 06:58:49 51°15.509 2°41.968 272.3 11.9 278 11.3
2008-06-25 06:59:49 51°15.546 2°41.657 284.4 12.2 296 11.7
2008-06-25 07:00:49 51°15.657 2°41.381 301.8 12.4 304 11.7
2008-06-25 07:01:49 51°15.769 2°41.102 299.5 12.5 302 13.2
2008-06-25 07:02:49 51°15.875 2°40.818 296 12.4 300 16.4
2008-06-25 07:03:49 51°15.977 2°40.533 296.6 12.3 297 19.4
2008-06-25 07:04:49 51°16.071 2°40.244 294.6 12.3 299 21.3
2008-06-25 07:05:49 51°16.169 2°39.958 296.4 12.3 299 21.5
2008-06-25 07:06:49 51°16.259 2°39.665 293.2 12.2 296 21
2008-06-25 07:07:49 51°16.353 2°39.376 298.9 12.3 300 18.9
2008-06-25 07:08:49 51°16.452 2°39.092 298.7 12.3 299 14.4
2008-06-25 07:09:49 51°16.558 2°38.813 300 12.2 300 11.7
2008-06-25 07:10:49 51°16.656 2°38.526 298.1 12.2 298 9.8
2008-06-25 07:11:49 51°16.762 2°38.244 302.2 12.7 302 15.3
2008-06-25 07:12:49 51°16.868 2°37.959 297.7 12.3 300 25.9
2008-06-25 07:13:49 51°16.975 2°37.68 300.3 12.3 300 28
2008-06-25 07:14:49 51°17.08 2°37.402 299.7 12.2 300 27.3
2008-06-25 07:15:49 51°17.187 2°37.124 300.9 12.2 301 27.3
2008-06-25 07:16:49 51°17.288 2°36.842 300.4 12.4 301 27.1
2008-06-25 07:17:49 51°17.389 2°36.557 296 12.3 297 24.4
2008-06-25 07:18:49 51°17.479 2°36.264 294.8 12.3 296 19.1
2008-06-25 07:19:49 51°17.569 2°35.972 297 12.3 299 14.4
2008-06-25 07:20:49 51°17.663 2°35.684 296 12.1 296 12.3
2008-06-25 07:21:49 51°17.754 2°35.393 296.5 12.3 298 17.9
2008-06-25 07:22:49 51°17.847 2°35.106 296.9 12.2 300 20.2
2008-06-25 07:23:49 51°17.931 2°34.827 288.2 11 290 18.8
2008-06-25 07:24:50 51°17.967 2°34.546 273.7 9.6 276 28.2
2008-06-25 07:25:49 51°17.979 2°34.344 271.9 6.1 274 28.3
2008-06-25 07:26:49 51°17.984 2°34.22 259.4 3.3 261 28.7
2008-06-25 07:27:49 51°17.967 2°34.168 226.4 1.7 227 28.3
2008-06-25 07:28:49 51°17.952 2°34.138 234.5 1.4 247 28.5
2008-06-25 07:29:49 51°17.944 2°34.103 244.2 1.5 253 28.5
2008-06-25 07:30:49 51°17.947 2°34.044 281.5 4.3 303 28.4
2008-06-25 07:31:49 51°18.03 2°34.048 36.4 6.2 47 28.1
2008-06-25 07:32:49 51°18.095 2°34.268 66.7 12.1 64 27.7
2008-06-25 07:33:49 51°18.186 2°34.564 66.2 12.1 63 26.9
2008-06-25 07:34:49 51°18.276 2°34.854 68.1 12.7 67 28.2
2008-06-25 07:35:49 51°18.33 2°35.179 81.6 12.6 77 25.7
2008-06-25 07:36:49 51°18.377 2°35.506 82.1 12.6 80 27.3
2008-06-25 07:37:49 51°18.41 2°35.835 83.8 12.5 79 24.7
2008-06-25 07:38:49 51°18.434 2°36.163 86.4 12.4 83 21
2008-06-25 07:39:49 51°18.468 2°36.488 82.8 12.5 79 19.7
2008-06-25 07:40:49 51°18.501 2°36.811 82.8 12.3 80 17.6
2008-06-25 07:41:49 51°18.537 2°37.136 83.7 12.3 80 19.8
2008-06-25 07:42:49 51°18.567 2°37.461 86.9 12.4 84 21.5
2008-06-25 07:43:49 51°18.586 2°37.789 88.1 12.4 86 23.1
2008-06-25 07:44:49 51°18.61 2°38.117 86.8 12.4 83 26.2
2008-06-25 07:45:49 51°18.64 2°38.444 85.2 12.6 81 26.7
2008-06-25 07:46:49 51°18.66 2°38.773 88.6 12.4 85 27
2008-06-25 07:47:49 51°18.685 2°39.092 86.4 10.4 83 26.1
2008-06-25 07:48:49 51°18.685 2°39.242 113.2 3.9 101 26
2008-06-25 07:49:49 51°18.681 2°39.33 92.8 3 81 25.6
2008-06-25 07:50:49 51°18.704 2°39.395 54.3 2.7 51 25.6
2008-06-25 07:51:49 51°18.739 2°39.431 18 2.4 22 25.3
2008-06-25 07:52:49 51°18.775 2°39.441 345.3 2 -999 25.3
2008-06-25 07:53:49 51°18.806 2°39.433 318.7 1.7 342 25.2
2008-06-25 07:54:49 51°18.83 2°39.414 295.3 1.4 325 25.3
2008-06-25 07:55:49 51°18.846 2°39.39 273.1 1.1 301 25.4
2008-06-25 07:56:49 51°18.852 2°39.367 245.5 0.6 281 25.5
2008-06-25 07:57:49 51°18.854 2°39.362 227.8 0.1 358 25.4
2008-06-25 07:58:49 51°18.849 2°39.357 221 2.1 232 25.5
2008-06-25 07:59:49 51°18.848 2°39.314 278.7 0.8 317 25.7
2008-06-25 08:00:49 51°18.86 2°39.312 309.2 0.9 16 25.8
2008-06-25 08:01:49 51°18.875 2°39.319 334.9 1 20 25.7
2008-06-25 08:02:49 51°18.889 2°39.331 344.5 0.8 28 25.7
2008-06-25 08:03:49 51°18.902 2°39.345 346 1 43 25.6
2008-06-25 08:04:49 51°18.912 2°39.362 346.3 0.8 47 25.7
2008-06-25 08:05:49 51°18.92 2°39.38 349.6 0.8 54 25.7
2008-06-25 08:06:49 51°18.935 2°39.394 342.5 1.9 359 25.5
2008-06-25 08:07:49 51°18.966 2°39.351 281.4 2.8 288 25.9
2008-06-25 08:08:49 51°18.956 2°39.294 223.5 2.4 226 26.2
2008-06-25 08:09:49 51°18.929 2°39.28 192.5 1.4 178 26.2
2008-06-25 08:10:49 51°18.912 2°39.286 191.4 0.8 155 26.1
2008-06-25 08:11:49 51°18.903 2°39.297 190.3 0.5 130 26
2008-06-25 08:12:49 51°18.9 2°39.31 188.4 0.5 102 25.8
2008-06-25 08:13:49 51°18.9 2°39.326 186.4 0.7 85 25.7
2008-06-25 08:14:49 51°18.902 2°39.344 181.4 0.7 72 25.6
2008-06-25 08:15:49 51°18.906 2°39.363 173 0.8 73 25.5
2008-06-25 08:16:49 51°18.911 2°39.384 161.7 0.9 67 25.4
2008-06-25 08:17:49 51°18.917 2°39.405 153.3 1 66 25.2
2008-06-25 08:18:49 51°18.923 2°39.426 148.8 1 65 25.2
2008-06-25 08:19:49 51°18.929 2°39.447 148.1 0.8 65 25.1
2008-06-25 08:20:49 51°18.934 2°39.467 149.6 0.8 69 25.1
2008-06-25 08:21:49 51°18.938 2°39.486 153.1 0.7 68 25
2008-06-25 08:22:49 51°18.942 2°39.504 155.5 0.7 67 24.8
2008-06-25 08:23:49 51°18.947 2°39.522 156.8 0.7 68 24.9
2008-06-25 08:24:49 51°18.952 2°39.54 158 0.8 65 24.6
2008-06-25 08:25:49 51°18.958 2°39.558 155.8 0.9 66 24.5
2008-06-25 08:26:49 51°18.965 2°39.576 153 0.8 60 24.5
2008-06-25 08:27:49 51°18.972 2°39.595 151.4 0.8 58 24.5
2008-06-25 08:28:49 51°18.978 2°39.613 150.1 0.8 56 24.4
2008-06-25 08:29:49 51°18.985 2°39.633 147.6 0.7 60 24.3
2008-06-25 08:30:49 51°18.992 2°39.651 147.9 0.8 60 24.2
2008-06-25 08:31:49 51°18.997 2°39.669 149.8 0.6 64 24.1
2008-06-25 08:32:49 51°18.998 2°39.689 157.8 1 123 24.1
2008-06-25 08:33:49 51°18.979 2°39.701 188.4 1.4 180 24
2008-06-25 08:34:49 51°18.956 2°39.683 221.9 1.8 226 23.9
2008-06-25 08:35:49 51°18.934 2°39.638 230.6 2.5 235 24.1
2008-06-25 08:36:49 51°18.912 2°39.597 212.6 1.1 218 24.3
2008-06-25 08:37:49 51°18.909 2°39.603 183 0.5 77 24.2
2008-06-25 08:38:49 51°18.912 2°39.619 156.7 0.6 76 24.1
2008-06-25 08:39:49 51°18.916 2°39.639 143.6 0.8 71 24
2008-06-25 08:40:49 51°18.92 2°39.659 143.5 0.7 71 24
2008-06-25 08:41:49 51°18.924 2°39.678 148.1 0.7 74 23.9
2008-06-25 08:42:49 51°18.927 2°39.696 151.4 0.7 72 23.8
2008-06-25 08:43:49 51°18.931 2°39.714 153.6 0.7 71 23.8
2008-06-25 08:44:49 51°18.935 2°39.733 154.6 0.7 70 23.8
2008-06-25 08:45:49 51°18.939 2°39.751 155.3 0.8 71 23.7
2008-06-25 08:46:49 51°18.944 2°39.769 156 0.8 67 23.7
2008-06-25 08:47:49 51°18.949 2°39.786 158.4 0.7 60 23.6
2008-06-25 08:48:49 51°18.954 2°39.801 160.3 0.5 61 23.5
2008-06-25 08:49:49 51°18.96 2°39.815 162.6 0.7 54 23.4
2008-06-25 08:50:49 51°18.967 2°39.83 161.8 0.7 54 23.4
2008-06-25 08:51:49 51°18.974 2°39.844 160.6 0.7 51 23.3
2008-06-25 08:52:49 51°18.982 2°39.858 158.5 0.8 50 23.2
2008-06-25 08:53:49 51°18.99 2°39.873 154.6 0.8 48 23.1
2008-06-25 08:54:49 51°18.998 2°39.886 154.1 0.7 43 23
2008-06-25 08:55:49 51°19.006 2°39.898 153.8 0.6 39 23
2008-06-25 08:56:49 51°19.014 2°39.911 152.9 0.7 41 22.8
2008-06-25 08:57:49 51°19.023 2°39.924 150.9 0.7 47 22.7
2008-06-25 08:58:49 51°19.02 2°39.941 164 2.1 163 22.8
2008-06-25 08:59:49 51°18.98 2°39.887 245.8 3.6 260 23.1
2008-06-25 09:00:49 51°19.005 2°39.786 296.9 5.4 300 23.4
2008-06-25 09:01:49 51°19.034 2°39.675 271.4 3.4 279 23.9
2008-06-25 09:02:49 51°19.023 2°39.611 225.7 1.8 231 24.2
2008-06-25 09:03:49 51°19.025 2°39.61 191.8 0.6 34 24.3
2008-06-25 09:04:49 51°19.034 2°39.623 162.4 0.7 40 24.2
2008-06-25 09:05:49 51°19.042 2°39.635 147.1 0.6 40 24.1
2008-06-25 09:06:49 51°19.05 2°39.648 144.1 0.7 47 24.1
2008-06-25 09:07:49 51°19.057 2°39.661 150.4 0.7 48 24.1
2008-06-25 09:08:49 51°19.065 2°39.672 155.2 0.6 42 24.1
2008-06-25 09:09:49 51°19.073 2°39.684 157.7 0.6 44 24.1
2008-06-25 09:10:49 51°19.081 2°39.694 157.5 0.6 41 24.1
2008-06-25 09:11:49 51°19.09 2°39.705 155.1 0.8 38 24
2008-06-25 09:12:49 51°19.1 2°39.717 150.2 0.6 38 24
2008-06-25 09:13:49 51°19.109 2°39.729 149.4 0.8 45 24
2008-06-25 09:14:49 51°19.117 2°39.741 149.7 0.7 45 23.8
2008-06-25 09:15:49 51°19.104 2°39.761 170.4 3 168 23.8
2008-06-25 09:16:49 51°19.036 2°39.672 245.4 7.1 259 23.8
2008-06-25 09:17:49 51°19.041 2°39.43 273.5 10.4 275 25.1
2008-06-25 09:18:49 51°19.037 2°39.206 268 6.2 268 26.3
2008-06-25 09:19:49 51°19.025 2°39.072 260.1 4.7 253 26.8
2008-06-25 09:20:49 51°18.995 2°39.008 223.7 2.1 222 27.1
2008-06-25 09:21:49 51°18.971 2°38.991 207.8 1.2 187 27
2008-06-25 09:22:49 51°18.956 2°38.99 200.5 0.7 183 27
2008-06-25 09:23:49 51°18.947 2°38.997 191 0.6 142 27
2008-06-25 09:24:49 51°18.942 2°39.011 178.2 0.6 110 26.8
2008-06-25 09:25:49 51°18.941 2°39.027 164.4 0.7 86 26.7
2008-06-25 09:26:49 51°18.942 2°39.042 153.8 0.6 77 26.4
2008-06-25 09:27:49 51°18.946 2°39.058 146.6 0.6 68 26.5
2008-06-25 09:28:49 51°18.949 2°39.072 144.5 0.7 69 26.4
2008-06-25 09:29:49 51°18.954 2°39.086 144 0.6 58 26.5
2008-06-25 09:30:49 51°18.935 2°39.128 137.6 3.3 129 26.4
2008-06-25 09:31:49 51°18.939 2°39.215 62.1 3.2 51 25.6
2008-06-25 09:32:49 51°18.979 2°39.255 20.5 2.7 15 25.7
2008-06-25 09:33:49 51°19.018 2°39.265 7.6 2.1 4 25.7
2008-06-25 09:34:49 51°19.049 2°39.264 352.3 1.8 355 25.9
2008-06-25 09:35:49 51°19.077 2°39.261 345.2 1.5 353 26.1
2008-06-25 09:36:49 51°19.097 2°39.258 339.6 1.1 351 26.1
2008-06-25 09:37:49 51°19.114 2°39.257 336.6 1 357 26.7
2008-06-25 09:38:49 51°19.129 2°39.254 329.8 0.8 353 26.5
2008-06-25 09:39:49 51°19.146 2°39.247 330.1 2.3 341 26.8
2008-06-25 09:40:49 51°19.203 2°39.289 59.8 5.2 69 27.3
2008-06-25 09:41:49 51°19.147 2°39.382 170.5 6.2 177 26.4
2008-06-25 09:42:49 51°19.01 2°39.372 181.1 9.3 182 25.2
2008-06-25 09:43:49 51°18.865 2°39.341 182.9 6.9 183 24.5
2008-06-25 09:44:49 51°18.798 2°39.388 121.9 4.3 106 24.1
2008-06-25 09:45:49 51°18.827 2°39.465 35.6 2.9 26 24.1
2008-06-25 09:46:49 51°18.864 2°39.478 12.2 1.8 1 23.9
2008-06-25 09:47:49 51°18.889 2°39.473 353 1.3 359 24.1
2008-06-25 09:48:49 51°18.907 2°39.463 340.9 1 343 24
2008-06-25 09:49:49 51°18.92 2°39.455 331.1 0.7 345 24.2
2008-06-25 09:50:49 51°18.93 2°39.449 326.6 0.6 350 24.2
2008-06-25 09:51:49 51°18.939 2°39.447 327.8 0.6 -999 24.4
2008-06-25 09:52:49 51°18.948 2°39.448 335.1 0.5 14 24.3
2008-06-25 09:53:49 51°18.954 2°39.449 341.6 0.4 356 24.3
2008-06-25 09:54:49 51°18.96 2°39.452 343.7 0.3 7 24.4
2008-06-25 09:55:49 51°18.964 2°39.456 347 0.2 45 24.4
2008-06-25 09:56:49 51°18.967 2°39.459 349.8 0.1 14 24.3
2008-06-25 09:57:49 51°18.97 2°39.462 350.1 0.2 357 24.4
2008-06-25 09:58:49 51°18.972 2°39.465 347.4 0.1 36 24.4
2008-06-25 09:59:49 51°18.975 2°39.468 347.3 0.2 41 24.2
2008-06-25 10:00:49 51°18.978 2°39.47 345.6 0.2 36 24.4
2008-06-25 10:01:49 51°18.981 2°39.471 343.5 0.3 359 24.4
2008-06-25 10:02:49 51°18.983 2°39.473 342.3 0.3 29 24.4
2008-06-25 10:03:49 51°18.986 2°39.475 340.1 0.1 32 24.4
2008-06-25 10:04:49 51°19.016 2°39.478 15.5 4.3 20 24.5
2008-06-25 10:05:49 51°19.034 2°39.615 97.1 8.3 98 23.9
2008-06-25 10:06:49 51°19.016 2°39.9 93.5 11.3 99 22.3
2008-06-25 10:07:49 51°18.981 2°40.2 98.1 11.3 104 20.8
2008-06-25 10:08:49 51°18.935 2°40.49 102.4 11.2 108 16.9
2008-06-25 10:09:49 51°18.88 2°40.773 106.7 11.3 110 18.2
2008-06-25 10:10:49 51°18.815 2°41.057 107.3 11.3 113 13.5
2008-06-25 10:11:49 51°18.745 2°41.34 107.6 11.4 113 16.7
2008-06-25 10:12:49 51°18.682 2°41.632 105.7 11.7 105 20.3
2008-06-25 10:13:49 51°18.62 2°41.925 104.7 11.6 105 21.6
2008-06-25 10:14:49 51°18.567 2°42.174 105.6 8.8 110 22.2
2008-06-25 10:15:49 51°18.544 2°42.398 95.5 8.5 91 22.6
2008-06-25 10:16:49 51°18.549 2°42.62 86 8.5 88 22.5
2008-06-25 10:17:49 51°18.562 2°42.843 82.9 8.5 88 22.3
2008-06-25 10:18:49 51°18.549 2°43.029 101.1 5.5 106 22.2
2008-06-25 10:19:49 51°18.511 2°43.114 130.2 2.7 140 22.4
2008-06-25 10:20:49 51°18.487 2°43.141 146.4 1.2 152 22.1
2008-06-25 10:21:49 51°18.476 2°43.146 159.9 0.4 163 22.2
2008-06-25 10:22:49 51°18.474 2°43.151 154.6 0.2 101 22.7
2008-06-25 10:23:49 51°18.474 2°43.153 149.3 0.1 115 22.4
2008-06-25 10:24:49 51°18.473 2°43.158 144 0.3 135 22.4
2008-06-25 10:25:49 51°18.469 2°43.161 145.9 0.2 150 22.4
2008-06-25 10:26:49 51°18.467 2°43.166 143.5 0.6 129 22.4
2008-06-25 10:27:49 51°18.451 2°43.212 95.3 2.8 89 22.3
2008-06-25 10:28:49 51°18.479 2°43.279 44 3 42 22
2008-06-25 10:29:49 51°18.504 2°43.309 52.1 0.8 39 22.1
2008-06-25 10:30:49 51°18.505 2°43.311 84.4 -999 305 22.1
2008-06-25 10:31:49 51°18.505 2°43.314 107.2 0.3 120 21.9
2008-06-25 10:32:49 51°18.501 2°43.318 126.2 0.2 157 22.1
2008-06-25 10:33:49 51°18.5 2°43.317 141.1 0.2 209 22.2
2008-06-25 10:34:49 51°18.496 2°43.318 148 0.3 168 22
2008-06-25 10:35:49 51°18.495 2°43.319 151.6 0.1 254 22.1
2008-06-25 10:36:49 51°18.495 2°43.319 149 0.1 97 22
2008-06-25 10:37:49 51°18.494 2°43.322 144.7 0.1 108 22
2008-06-25 10:38:49 51°18.487 2°43.327 154.8 0.8 173 22.6
2008-06-25 10:39:49 51°18.477 2°43.328 163.2 0.2 184 20.2
2008-06-25 10:40:49 51°18.476 2°43.327 157.1 0.2 22 20.7
2008-06-25 10:41:49 51°18.479 2°43.328 145 0.2 350 20.6
2008-06-25 10:42:49 51°18.483 2°43.324 135.6 0.3 325 20.5
2008-06-25 10:43:49 51°18.485 2°43.325 139.7 -999 193 21.4
2008-06-25 10:44:49 51°18.485 2°43.324 143.7 0.1 313 21.8
2008-06-25 10:45:49 51°18.487 2°43.324 145.9 0.3 161 22.3
2008-06-25 10:46:49 51°18.478 2°43.328 158.6 0.2 186 20.3
2008-06-25 10:47:49 51°18.48 2°43.324 144.4 0.3 332 20.4
2008-06-25 10:48:49 51°18.483 2°43.32 128.1 0.3 127 20.4
2008-06-25 10:49:49 51°18.445 2°43.352 152.8 5.6 167 21.7
2008-06-25 10:50:49 51°18.298 2°43.396 163.4 11.2 168 21.2
2008-06-25 10:51:49 51°18.101 2°43.419 176.7 12.1 184 15.6
2008-06-25 10:52:49 51°17.898 2°43.409 175.1 12.1 179 10.8
2008-06-25 10:53:49 51°17.695 2°43.381 187.6 12.3 200 9.9
2008-06-25 10:54:49 51°17.54 2°43.161 224.4 13 231 10.1
2008-06-25 10:55:49 51°17.436 2°42.859 246 13 246 9.5
2008-06-25 10:56:49 51°17.352 2°42.538 246.6 13.1 248 14.6
2008-06-25 10:57:49 51°17.277 2°42.214 250 13.1 250 20.3
2008-06-25 10:58:49 51°17.203 2°41.928 246.8 8.8 245 21.6
2008-06-25 10:59:49 51°17.16 2°41.765 249.5 5.5 246 22
2008-06-25 11:00:49 51°17.125 2°41.64 246.6 5.4 243 22.2
2008-06-25 11:01:49 51°17.076 2°41.475 247.7 7.5 245 22.5
2008-06-25 11:02:49 51°17.032 2°41.323 249.1 5 244 22.5
2008-06-25 11:03:49 51°17.008 2°41.245 238.1 1.5 228 21.9
2008-06-25 11:04:49 51°17.007 2°41.243 213.2 0.4 24 -999
2008-06-25 11:05:50 51°17.012 2°41.247 190.5 0.4 8 22.1
2008-06-25 11:06:50 51°17.016 2°41.243 162.2 0.4 282 22.5
2008-06-25 11:07:50 51°17.013 2°41.239 135.9 0.3 189 22.6
2008-06-25 11:08:50 51°17.006 2°41.238 132 0.6 188 22.3
2008-06-25 11:09:50 51°17.001 2°41.235 130.5 0.2 263 21.8
2008-06-25 11:10:50 51°16.999 2°41.226 126.9 0.5 175 22.2
2008-06-25 11:11:50 51°16.977 2°41.258 124.7 2.8 135 22.3
2008-06-25 11:12:50 51°16.957 2°41.318 94.8 2.8 106 21.8
2008-06-25 11:13:50 51°16.94 2°41.375 110.3 1.9 125 21.5
2008-06-25 11:14:50 51°16.922 2°41.421 102.7 2.6 110 21.7
2008-06-25 11:15:50 51°16.887 2°41.497 128.1 4 136 21
2008-06-25 11:16:50 51°16.815 2°41.532 177.3 5.4 180 20.2
2008-06-25 11:17:50 51°16.69 2°41.539 175.4 8.7 178 18.7
2008-06-25 11:18:50 51°16.537 2°41.553 174.8 9.4 176 16.2
2008-06-25 11:19:50 51°16.383 2°41.565 177 8.9 178 14.5
2008-06-25 11:20:50 51°16.205 2°41.577 175.5 11.9 177 12.7
2008-06-25 11:21:50 51°16.003 2°41.593 176 12.2 177 10.9
2008-06-25 11:22:50 51°15.8 2°41.601 175 12.3 178 9.8
2008-06-25 11:23:50 51°15.597 2°41.614 176.9 12 174 9.7
2008-06-25 11:24:50 51°15.417 2°41.736 142.6 12 140 10
2008-06-25 11:25:50 51°15.317 2°41.994 106.7 11.4 102 9.9
2008-06-25 11:26:50 51°15.296 2°42.293 90.6 11.4 93 10.8
2008-06-25 11:27:50 51°15.287 2°42.596 91.4 11.4 94 10.6
2008-06-25 11:28:50 51°15.268 2°42.909 91.5 11.7 93 12.7
2008-06-25 11:29:50 51°15.251 2°43.212 92.1 11.7 96 12.4
2008-06-25 11:30:50 51°15.236 2°43.515 90.8 11.5 96 11.1
2008-06-25 11:31:50 51°15.218 2°43.822 92.1 11.7 95 13.3
2008-06-25 11:32:50 51°15.199 2°44.124 91.4 11.2 99 15.8
2008-06-25 11:33:50 51°15.18 2°44.421 93.4 11.1 96 17.4
2008-06-25 11:34:50 51°15.157 2°44.727 93.1 11.7 97 17
2008-06-25 11:35:50 51°15.138 2°45.031 92.8 11.7 96 15.8
2008-06-25 11:36:50 51°15.114 2°45.332 92.2 11.6 99 15
2008-06-25 11:37:50 51°15.091 2°45.634 93 11.4 96 13.8
2008-06-25 11:38:50 51°15.069 2°45.935 90.4 11.5 100 12.3
2008-06-25 11:39:50 51°15.051 2°46.234 91.3 11.4 95 10.9
2008-06-25 11:40:50 51°15.033 2°46.535 92 11.6 96 9.4
2008-06-25 11:41:50 51°15.014 2°46.837 92.4 11.3 93 8.6
2008-06-25 11:42:50 51°14.989 2°47.141 93.4 11.6 98 8.8
2008-06-25 11:43:50 51°14.978 2°47.445 90.5 11.4 92 10.9
2008-06-25 11:44:50 51°14.962 2°47.751 90.5 11.2 95 12.2
2008-06-25 11:45:50 51°14.946 2°48.049 90.2 11.3 92 12.3
2008-06-25 11:46:50 51°14.928 2°48.354 90.8 11.5 95 11.9
2008-06-25 11:47:50 51°14.911 2°48.658 92.6 11.6 95 11.8
2008-06-25 11:48:50 51°14.893 2°48.959 91.8 11.5 97 11.8
2008-06-25 11:49:50 51°14.875 2°49.263 92 11.3 98 11.9
2008-06-25 11:50:50 51°14.862 2°49.562 88.2 11.1 93 11.9
2008-06-25 11:51:50 51°14.856 2°49.858 88.8 11.5 93 11.8
2008-06-25 11:52:50 51°14.845 2°50.162 87.2 11.6 93 11.5
2008-06-25 11:53:50 51°14.833 2°50.463 90.2 11.4 94 11.4
2008-06-25 11:54:50 51°14.822 2°50.767 87.3 11.2 91 11.1
2008-06-25 11:55:50 51°14.814 2°51.064 90.6 11.2 91 10.7
2008-06-25 11:56:50 51°14.801 2°51.364 89.5 11.3 97 10.3
2008-06-25 11:57:50 51°14.787 2°51.663 92.1 11.4 92 9.9
2008-06-25 11:58:50 51°14.773 2°51.962 89.5 11.5 92 9.5
2008-06-25 11:59:50 51°14.763 2°52.266 88.1 11.6 94 9
2008-06-25 12:00:50 51°14.745 2°52.573 93.4 11.7 98 9
2008-06-25 12:01:50 51°14.712 2°52.877 96.4 11.6 100 8.8
2008-06-25 12:02:50 51°14.677 2°53.181 96.8 11.7 103 8.3
2008-06-25 12:03:50 51°14.642 2°53.485 96.8 11.7 100 8
2008-06-25 12:04:50 51°14.609 2°53.791 95.7 11.8 99 9.4
2008-06-25 12:05:50 51°14.571 2°54.105 100.3 12.1 99 10.6
2008-06-25 12:06:50 51°14.524 2°54.412 102.5 12.1 106 10.3
2008-06-25 12:07:50 51°14.456 2°54.704 106.6 11.8 116 10.4
2008-06-25 12:08:50 51°14.371 2°54.99 115.4 12 121 9.9
2008-06-25 12:09:50 51°14.259 2°55.253 127.8 11.6 132 10.1
2008-06-25 12:10:50 51°14.124 2°55.414 151.3 8.8 154 10.3
2008-06-25 12:11:50 51°14.003 2°55.503 155.3 7.6 155 10.5